createdAt,value
2018-05-13T00:00:54.319Z,19.62
2018-05-13T00:03:25.339Z,19.62
2018-05-13T00:05:56.313Z,19.61
2018-05-13T00:08:27.339Z,19.60
2018-05-13T00:10:58.307Z,19.58
2018-05-13T00:13:29.353Z,19.56
2018-05-13T00:16:00.355Z,19.54
2018-05-13T00:18:31.335Z,19.49
2018-05-13T00:21:02.347Z,19.46
2018-05-13T00:23:33.341Z,19.43
2018-05-13T00:26:04.403Z,19.40
2018-05-13T00:28:35.372Z,19.39
2018-05-13T00:31:06.370Z,19.37
2018-05-13T00:33:37.362Z,19.33
2018-05-13T00:36:08.368Z,19.33
2018-05-13T00:38:39.367Z,19.29
2018-05-13T00:41:10.397Z,19.28
2018-05-13T00:43:41.446Z,19.23
2018-05-13T00:46:12.412Z,19.21
2018-05-13T00:48:43.399Z,19.21
2018-05-13T00:51:14.394Z,19.19
2018-05-13T00:53:45.402Z,19.18
2018-05-13T00:56:16.383Z,19.20
2018-05-13T00:58:47.362Z,19.20
2018-05-13T01:01:18.356Z,19.17
2018-05-13T01:03:49.330Z,19.14
2018-05-13T01:06:20.330Z,19.11
2018-05-13T01:08:51.269Z,19.06
2018-05-13T01:11:22.291Z,19.03
2018-05-13T01:13:53.277Z,18.99
2018-05-13T01:16:24.259Z,18.96
2018-05-13T01:18:55.255Z,18.92
2018-05-13T01:21:26.266Z,18.89
2018-05-13T01:23:57.275Z,18.85
2018-05-13T01:26:28.279Z,18.81
2018-05-13T01:28:59.364Z,18.73
2018-05-13T01:31:30.302Z,18.68
2018-05-13T01:34:01.311Z,18.63
2018-05-13T01:36:32.328Z,18.62
2018-05-13T01:39:03.342Z,18.60
2018-05-13T01:41:34.320Z,18.58
2018-05-13T01:44:05.337Z,18.58
2018-05-13T01:46:36.316Z,18.56
2018-05-13T01:49:07.326Z,18.56
2018-05-13T01:51:38.381Z,18.56
2018-05-13T01:54:09.383Z,18.54
2018-05-13T01:56:40.401Z,18.55
2018-05-13T01:59:11.400Z,18.55
2018-05-13T02:01:42.387Z,18.56
2018-05-13T02:04:13.398Z,18.58
2018-05-13T02:06:44.434Z,18.58
2018-05-13T02:09:15.444Z,18.58
2018-05-13T02:11:46.443Z,18.57
2018-05-13T02:14:17.470Z,18.56
2018-05-13T02:16:48.432Z,18.54
2018-05-13T02:19:19.459Z,18.56
2018-05-13T02:21:50.434Z,18.53
2018-05-13T02:24:21.475Z,18.55
2018-05-13T02:26:52.455Z,18.53
2018-05-13T02:29:23.456Z,18.52
2018-05-13T02:31:54.394Z,18.52
2018-05-13T02:34:25.430Z,18.48
2018-05-13T02:36:56.376Z,18.45
2018-05-13T02:39:27.352Z,18.42
2018-05-13T02:41:58.316Z,18.40
2018-05-13T02:44:29.333Z,18.36
2018-05-13T02:47:00.302Z,18.37
2018-05-13T02:49:31.304Z,18.33
2018-05-13T02:52:02.258Z,18.32
2018-05-13T02:54:33.251Z,18.29
2018-05-13T02:57:04.205Z,18.26
2018-05-13T02:59:35.211Z,18.21
2018-05-13T03:02:06.209Z,18.21
2018-05-13T03:04:37.222Z,18.19
2018-05-13T03:07:08.217Z,18.17
2018-05-13T03:09:39.216Z,18.15
2018-05-13T03:12:10.224Z,18.13
2018-05-13T03:14:41.181Z,18.12
2018-05-13T03:17:12.222Z,18.12
2018-05-13T03:19:43.210Z,18.10
2018-05-13T03:22:14.248Z,18.11
2018-05-13T03:24:45.211Z,18.10
2018-05-13T03:27:16.190Z,18.11
2018-05-13T03:29:47.128Z,18.05
2018-05-13T03:32:18.121Z,18.02
2018-05-13T03:34:49.125Z,18.02
2018-05-13T03:37:20.123Z,17.99
2018-05-13T03:39:51.109Z,18.00
2018-05-13T03:42:22.120Z,18.03
2018-05-13T03:44:53.075Z,18.05
2018-05-13T03:47:24.061Z,18.06
2018-05-13T03:49:55.004Z,18.07
2018-05-13T03:52:26.100Z,18.06
2018-05-13T03:54:57.098Z,18.12
2018-05-13T03:57:28.123Z,18.17
2018-05-13T03:59:59.086Z,18.20
2018-05-13T04:02:30.107Z,18.24
2018-05-13T04:05:01.078Z,18.25
2018-05-13T04:07:32.072Z,18.28
2018-05-13T04:10:15.401Z,18.36
2018-05-13T04:15:53.150Z,18.40
2018-05-13T04:18:24.122Z,18.46
2018-05-13T04:20:55.128Z,18.49
2018-05-13T04:23:26.148Z,18.53
2018-05-13T04:25:57.147Z,18.60
2018-05-13T04:28:28.182Z,18.66
2018-05-13T04:30:59.208Z,18.77
2018-05-13T04:33:30.174Z,18.90
2018-05-13T04:36:01.170Z,18.98
2018-05-13T04:38:32.123Z,19.06
2018-05-13T04:41:03.142Z,19.17
2018-05-13T04:43:34.194Z,19.26
2018-05-13T04:46:05.199Z,19.37
2018-05-13T04:48:36.255Z,19.46
2018-05-13T04:51:07.220Z,19.56
2018-05-13T04:53:38.225Z,19.69
2018-05-13T04:56:09.196Z,19.80
2018-05-13T04:58:40.206Z,19.91
2018-05-13T05:01:11.233Z,20.00
2018-05-13T05:03:42.246Z,20.09
2018-05-13T05:06:13.246Z,20.13
2018-05-13T05:08:44.256Z,20.18
2018-05-13T05:11:15.273Z,20.24
2018-05-13T05:13:46.220Z,20.35
2018-05-13T05:16:17.243Z,20.50
2018-05-13T05:18:48.209Z,20.67
2018-05-13T05:21:19.206Z,20.80
2018-05-13T05:23:50.597Z,20.93
2018-05-13T05:26:21.601Z,21.04
2018-05-13T05:28:52.776Z,21.07
2018-05-13T05:31:23.772Z,21.15
2018-05-13T05:33:54.788Z,21.29
2018-05-13T05:36:25.754Z,21.43
2018-05-13T05:38:56.772Z,21.50
2018-05-13T05:41:27.767Z,21.58
2018-05-13T05:43:58.783Z,21.63
2018-05-13T05:46:29.766Z,21.72
2018-05-13T05:49:00.781Z,21.79
2018-05-13T05:51:31.746Z,21.89
2018-05-13T05:54:02.758Z,21.97
2018-05-13T05:56:33.768Z,21.96
2018-05-13T05:59:04.773Z,22.07
2018-05-13T06:01:35.750Z,22.33
2018-05-13T06:04:06.778Z,25.05
2018-05-13T06:06:37.803Z,30.40
2018-05-13T06:09:08.827Z,34.93
2018-05-13T06:11:39.907Z,37.77
2018-05-13T06:14:10.906Z,40.56
2018-05-13T06:16:41.899Z,42.86
2018-05-13T06:19:12.918Z,44.20
2018-05-13T06:21:43.919Z,44.64
2018-05-13T06:24:14.982Z,45.03
2018-05-13T06:26:46.018Z,46.43
2018-05-13T06:29:17.002Z,47.86
2018-05-13T06:31:48.110Z,47.58
2018-05-13T06:34:19.165Z,47.98
2018-05-13T06:36:50.189Z,48.13
2018-05-13T06:39:21.230Z,48.41
2018-05-13T06:41:52.295Z,49.40
2018-05-13T06:44:23.340Z,50.04
2018-05-13T06:46:54.358Z,50.56
2018-05-13T06:49:25.394Z,51.06
2018-05-13T06:51:56.409Z,51.33
2018-05-13T06:54:27.354Z,52.19
2018-05-13T06:56:58.341Z,52.98
2018-05-13T06:59:29.352Z,53.81
2018-05-13T07:02:00.427Z,54.42
2018-05-13T07:04:31.460Z,54.69
2018-05-13T07:07:02.599Z,54.39
2018-05-13T07:09:33.660Z,54.05
2018-05-13T07:12:04.626Z,54.88
2018-05-13T07:14:35.694Z,55.88
2018-05-13T07:17:06.731Z,55.28
2018-05-13T07:19:37.736Z,54.67
2018-05-13T07:22:08.749Z,54.72
2018-05-13T07:24:39.834Z,54.08
2018-05-13T07:27:10.903Z,54.00
2018-05-13T07:29:41.978Z,54.77
2018-05-13T07:32:12.975Z,55.56
2018-05-13T07:34:44.228Z,55.15
2018-05-13T07:37:15.362Z,56.31
2018-05-13T07:39:46.471Z,55.72
2018-05-13T07:42:17.488Z,54.14
2018-05-13T07:44:48.560Z,53.98
2018-05-13T07:47:19.674Z,54.11
2018-05-13T07:49:50.648Z,55.41
2018-05-13T07:52:21.951Z,55.93
2018-05-13T07:54:53.055Z,57.22
2018-05-13T07:57:24.084Z,57.66
2018-05-13T07:59:55.116Z,57.33
2018-05-13T08:02:26.220Z,57.40
2018-05-13T08:04:58.730Z,58.49
2018-05-13T08:07:37.020Z,59.12
2018-05-13T08:10:08.270Z,58.39
2018-05-13T08:12:39.438Z,59.17
2018-05-13T08:15:10.633Z,59.60
2018-05-13T08:17:42.019Z,60.19
2018-05-13T08:20:13.703Z,59.71
2018-05-13T08:22:45.048Z,58.76
2018-05-13T08:25:17.374Z,59.65
2018-05-13T08:27:48.571Z,60.43
2018-05-13T08:30:20.089Z,60.40
2018-05-13T08:32:51.969Z,60.41
2018-05-13T08:35:24.976Z,61.08
2018-05-13T08:37:55.997Z,60.90
2018-05-13T08:40:27.015Z,60.79
2018-05-13T08:42:58.000Z,59.95
2018-05-13T08:45:29.033Z,59.70
2018-05-13T08:48:00.044Z,60.22
2018-05-13T08:50:31.059Z,60.15
2018-05-13T08:53:02.105Z,60.38
2018-05-13T08:55:33.093Z,60.49
2018-05-13T08:58:04.094Z,60.39
2018-05-13T09:00:35.084Z,60.56
2018-05-13T09:03:06.046Z,60.76
2018-05-13T09:05:37.096Z,60.30
2018-05-13T09:08:08.103Z,60.10
2018-05-13T09:10:39.109Z,59.05
2018-05-13T09:13:10.118Z,58.34
2018-05-13T09:15:41.106Z,58.74
2018-05-13T09:18:12.075Z,57.68
2018-05-13T09:20:43.131Z,57.42
2018-05-13T09:23:14.020Z,57.69
2018-05-13T09:25:45.067Z,58.52
2018-05-13T09:28:16.098Z,59.37
2018-05-13T09:30:47.065Z,59.74
2018-05-13T09:33:18.109Z,60.03
2018-05-13T09:35:49.112Z,60.10
2018-05-13T09:38:20.141Z,59.67
2018-05-13T09:40:51.158Z,59.18
2018-05-13T09:43:22.146Z,59.72
2018-05-13T09:45:53.151Z,60.36
2018-05-13T09:48:24.153Z,60.70
2018-05-13T09:50:55.185Z,60.77
2018-05-13T09:53:26.242Z,60.54
2018-05-13T09:55:57.221Z,60.08
2018-05-13T09:58:28.171Z,58.96
2018-05-13T10:00:59.189Z,59.00
2018-05-13T10:03:30.228Z,59.50
2018-05-13T10:06:01.234Z,59.85
2018-05-13T10:08:32.231Z,59.76
2018-05-13T10:11:03.212Z,58.96
2018-05-13T10:13:34.220Z,58.44
2018-05-13T10:16:05.224Z,58.30
2018-05-13T10:18:36.200Z,58.29
2018-05-13T10:21:07.194Z,57.87
2018-05-13T10:23:38.192Z,57.68
2018-05-13T10:26:09.194Z,58.19
2018-05-13T10:28:40.236Z,58.07
2018-05-13T10:31:11.181Z,58.18
2018-05-13T10:33:42.161Z,58.09
2018-05-13T10:36:13.155Z,57.46
2018-05-13T10:38:44.136Z,56.80
2018-05-13T10:41:15.146Z,57.01
2018-05-13T10:43:46.130Z,56.94
2018-05-13T10:46:17.152Z,55.84
2018-05-13T10:48:48.217Z,55.19
2018-05-13T10:51:19.119Z,54.57
2018-05-13T10:53:50.165Z,53.69
2018-05-13T10:56:21.169Z,51.21
2018-05-13T10:58:52.175Z,47.43
2018-05-13T11:01:23.177Z,44.46
2018-05-13T11:03:54.171Z,41.74
2018-05-13T11:06:25.191Z,39.90
2018-05-13T11:08:56.183Z,38.38
2018-05-13T11:11:27.237Z,37.38
2018-05-13T11:13:58.314Z,35.90
2018-05-13T11:16:29.266Z,34.48
2018-05-13T11:19:00.284Z,33.84
2018-05-13T11:21:31.315Z,33.88
2018-05-13T11:24:02.363Z,33.89
2018-05-13T11:26:33.383Z,34.06
2018-05-13T11:29:04.372Z,34.23
2018-05-13T11:31:35.405Z,34.17
2018-05-13T11:34:06.432Z,34.36
2018-05-13T11:36:37.543Z,34.18
2018-05-13T11:39:08.514Z,34.05
2018-05-13T11:41:39.564Z,33.93
2018-05-13T11:44:10.516Z,33.68
2018-05-13T11:46:41.596Z,33.52
2018-05-13T11:49:12.539Z,33.17
2018-05-13T11:51:43.562Z,33.15
2018-05-13T11:54:14.547Z,33.47
2018-05-13T11:56:45.550Z,33.55
2018-05-13T11:59:16.585Z,33.57
2018-05-13T12:01:47.581Z,33.35
2018-05-13T12:04:18.596Z,33.16
2018-05-13T12:06:49.585Z,33.65
2018-05-13T12:09:20.590Z,34.04
2018-05-13T12:11:51.587Z,34.54
2018-05-13T12:14:22.622Z,34.77
2018-05-13T12:16:53.632Z,35.11
2018-05-13T12:19:24.610Z,35.33
2018-05-13T12:21:55.575Z,35.34
2018-05-13T12:24:26.569Z,35.36
2018-05-13T12:26:57.604Z,35.09
2018-05-13T12:29:28.613Z,34.76
2018-05-13T12:31:59.594Z,34.75
2018-05-13T12:34:30.560Z,34.47
2018-05-13T12:37:01.590Z,34.14
2018-05-13T12:39:32.535Z,33.21
2018-05-13T12:42:03.526Z,32.63
2018-05-13T12:44:34.495Z,32.52
2018-05-13T12:47:05.508Z,32.58
2018-05-13T12:49:36.582Z,32.98
2018-05-13T12:52:07.628Z,33.29
2018-05-13T12:54:38.589Z,33.53
2018-05-13T12:57:09.629Z,33.93
2018-05-13T12:59:40.655Z,34.25
2018-05-13T13:02:11.704Z,34.59
2018-05-13T13:04:42.723Z,34.88
2018-05-13T13:07:13.731Z,35.38
2018-05-13T13:09:44.722Z,35.56
2018-05-13T13:12:15.756Z,35.67
2018-05-13T13:14:46.771Z,35.35
2018-05-13T13:17:17.786Z,35.43
2018-05-13T13:19:48.820Z,35.48
2018-05-13T13:22:19.902Z,34.91
2018-05-13T13:24:50.899Z,34.64
2018-05-13T13:27:21.917Z,34.12
2018-05-13T13:29:52.908Z,33.94
2018-05-13T13:32:23.879Z,34.29
2018-05-13T13:34:54.850Z,34.48
2018-05-13T13:37:25.822Z,34.71
2018-05-13T13:39:56.816Z,34.73
2018-05-13T13:42:34.680Z,34.72
2018-05-13T13:45:05.712Z,34.53
2018-05-13T13:47:36.849Z,34.54
2018-05-13T13:50:07.836Z,34.50
2018-05-13T13:52:53.780Z,34.17
2018-05-13T13:55:24.779Z,33.87
2018-05-13T13:57:55.881Z,33.88
2018-05-13T14:00:26.882Z,33.74
2018-05-13T14:02:57.901Z,33.88
2018-05-13T14:05:28.924Z,34.57
2018-05-13T14:07:59.955Z,34.62
2018-05-13T14:10:30.996Z,34.34
2018-05-13T14:13:02.027Z,34.36
2018-05-13T14:15:33.062Z,34.55
2018-05-13T14:18:04.110Z,34.28
2018-05-13T14:20:35.111Z,34.04
2018-05-13T14:23:06.188Z,34.43
2018-05-13T14:25:37.186Z,34.82
2018-05-13T14:28:08.250Z,34.52
2018-05-13T14:30:39.254Z,34.07
2018-05-13T14:33:10.309Z,33.43
2018-05-13T14:35:41.303Z,32.97
2018-05-13T14:38:12.325Z,33.47
2018-05-13T14:40:43.294Z,33.54
2018-05-13T14:43:14.309Z,33.80
2018-05-13T14:45:45.282Z,33.97
2018-05-13T14:48:16.283Z,34.21
2018-05-13T14:50:47.274Z,34.83
2018-05-13T14:53:18.313Z,35.14
2018-05-13T14:55:49.262Z,35.23
2018-05-13T14:58:20.290Z,35.65
2018-05-13T15:00:51.246Z,35.76
2018-05-13T15:03:22.247Z,36.04
2018-05-13T15:05:53.231Z,35.73
2018-05-13T15:08:24.318Z,35.23
2018-05-13T15:10:55.330Z,34.59
2018-05-13T15:13:26.334Z,34.01
2018-05-13T15:15:57.363Z,33.51
2018-05-13T15:18:28.380Z,33.15
2018-05-13T15:20:59.426Z,32.60
2018-05-13T15:23:30.434Z,32.19
2018-05-13T15:26:01.437Z,31.36
2018-05-13T15:28:35.374Z,30.77
2018-05-13T15:31:06.343Z,30.74
2018-05-13T15:33:37.347Z,30.59
2018-05-13T15:36:08.330Z,30.82
2018-05-13T15:38:39.370Z,31.04
2018-05-13T15:41:10.341Z,30.51
2018-05-13T15:43:41.385Z,30.25
2018-05-13T15:46:12.387Z,29.81
2018-05-13T15:48:43.417Z,29.68
2018-05-13T15:51:14.419Z,29.28
2018-05-13T15:53:45.401Z,29.09
2018-05-13T15:56:16.406Z,29.09
2018-05-13T15:58:47.406Z,28.50
2018-05-13T16:01:18.476Z,28.05
2018-05-13T16:03:49.490Z,27.83
2018-05-13T16:06:20.501Z,27.73
2018-05-13T16:08:51.530Z,28.12
2018-05-13T16:11:22.630Z,28.44
2018-05-13T16:13:53.605Z,28.36
2018-05-13T16:16:24.670Z,28.60
2018-05-13T16:18:55.732Z,28.66
2018-05-13T16:21:26.690Z,28.64
2018-05-13T16:23:57.701Z,28.59
2018-05-13T16:26:28.711Z,28.48
2018-05-13T16:28:59.784Z,28.28
2018-05-13T16:31:30.790Z,27.91
2018-05-13T16:34:01.781Z,27.47
2018-05-13T16:36:32.805Z,27.09
2018-05-13T16:39:04.802Z,26.87
2018-05-13T16:41:35.794Z,26.68
2018-05-13T16:44:06.798Z,26.68
2018-05-13T16:46:37.852Z,26.61
2018-05-13T16:49:08.830Z,26.35
2018-05-13T16:51:39.844Z,26.24
2018-05-13T16:54:10.912Z,26.13
2018-05-13T16:56:41.934Z,26.06
2018-05-13T16:59:12.872Z,25.94
2018-05-13T17:01:43.966Z,25.93
2018-05-13T17:04:14.986Z,25.93
2018-05-13T17:06:45.999Z,25.94
2018-05-13T17:09:17.144Z,25.81
2018-05-13T17:11:48.056Z,25.79
2018-05-13T17:14:19.096Z,25.67
2018-05-13T17:16:50.097Z,25.56
2018-05-13T17:19:21.119Z,25.61
2018-05-13T17:21:52.093Z,25.71
2018-05-13T17:24:23.069Z,25.80
2018-05-13T17:26:54.038Z,25.88
2018-05-13T17:29:25.093Z,25.71
2018-05-13T17:31:56.048Z,25.34
2018-05-13T17:34:27.103Z,25.26
2018-05-13T17:36:58.065Z,25.05
2018-05-13T17:39:29.085Z,24.81
2018-05-13T17:42:00.115Z,24.75
2018-05-13T17:44:31.118Z,24.67
2018-05-13T17:47:02.155Z,24.31
2018-05-13T17:49:33.147Z,24.06
2018-05-13T17:52:04.159Z,23.96
2018-05-13T17:54:36.227Z,23.90
2018-05-13T17:57:07.271Z,23.79
2018-05-13T17:59:38.268Z,23.67
2018-05-13T18:02:09.266Z,23.41
2018-05-13T18:04:40.341Z,23.13
2018-05-13T18:07:11.269Z,22.89
2018-05-13T18:09:42.260Z,22.72
2018-05-13T18:12:13.221Z,22.52
2018-05-13T18:14:44.211Z,22.39
2018-05-13T18:17:15.238Z,22.32
2018-05-13T18:19:46.263Z,22.24
2018-05-13T18:22:17.279Z,22.17
2018-05-13T18:24:48.311Z,22.10
2018-05-13T18:27:19.291Z,22.05
2018-05-13T18:29:50.278Z,22.00
2018-05-13T18:32:21.298Z,21.96
2018-05-13T18:34:52.326Z,21.92
2018-05-13T18:37:23.331Z,21.93
2018-05-13T18:39:54.359Z,21.90
2018-05-13T18:42:25.339Z,21.88
2018-05-13T18:44:56.395Z,21.86
2018-05-13T18:47:27.371Z,21.82
2018-05-13T18:49:58.369Z,21.79
2018-05-13T18:52:29.372Z,21.75
2018-05-13T18:55:00.417Z,21.71
2018-05-13T18:57:31.427Z,21.67
2018-05-13T19:00:02.527Z,21.66
2018-05-13T19:02:33.542Z,21.64
2018-05-13T19:05:04.523Z,21.63
2018-05-13T19:07:35.548Z,21.64
2018-05-13T19:10:06.584Z,21.76
2018-05-13T19:12:37.597Z,21.86
2018-05-13T19:15:08.568Z,21.94
2018-05-13T19:17:39.616Z,22.03
2018-05-13T19:20:10.630Z,22.11
2018-05-13T19:22:41.664Z,22.23
2018-05-13T19:25:12.648Z,22.37
2018-05-13T19:27:43.711Z,22.46
2018-05-13T19:30:14.756Z,22.51
2018-05-13T19:32:45.759Z,22.61
2018-05-13T19:35:16.778Z,22.53
2018-05-13T19:37:47.780Z,22.47
2018-05-13T19:40:18.765Z,22.17
2018-05-13T19:42:49.827Z,21.83
2018-05-13T19:45:20.824Z,21.88
2018-05-13T19:47:51.820Z,21.96
2018-05-13T19:50:22.785Z,21.90
2018-05-13T19:52:53.773Z,21.87
2018-05-13T19:55:24.741Z,21.64
2018-05-13T19:57:55.795Z,21.55
2018-05-13T20:00:26.793Z,21.48
2018-05-13T20:02:57.874Z,21.38
2018-05-13T20:05:28.862Z,21.26
2018-05-13T20:07:59.895Z,21.23
2018-05-13T20:10:30.961Z,21.32
2018-05-13T20:13:02.002Z,21.46
2018-05-13T20:15:33.048Z,21.50
2018-05-13T20:18:03.988Z,21.49
2018-05-13T20:20:34.966Z,21.52
2018-05-13T20:23:18.527Z,21.48
2018-05-13T20:25:49.512Z,21.31
2018-05-13T20:28:20.568Z,21.23
2018-05-13T20:30:51.559Z,21.05
2018-05-13T20:33:22.640Z,20.83
2018-05-13T20:35:53.729Z,20.74
2018-05-13T20:38:24.656Z,20.67
2018-05-13T20:40:55.679Z,20.52
2018-05-13T20:43:26.678Z,20.40
2018-05-13T20:45:57.724Z,20.24
2018-05-13T20:48:28.757Z,20.24
2018-05-13T20:50:59.787Z,20.23
2018-05-13T20:53:30.756Z,20.28
2018-05-13T20:56:01.814Z,20.29
2018-05-13T20:58:32.812Z,20.23
2018-05-13T21:01:03.854Z,20.16
2018-05-13T21:03:34.864Z,20.11
2018-05-13T21:06:05.875Z,20.05
2018-05-13T21:08:36.842Z,19.96
2018-05-13T21:11:07.878Z,19.98
2018-05-13T21:13:38.888Z,19.97
2018-05-13T21:16:09.913Z,19.96
2018-05-13T21:18:40.918Z,19.93
2018-05-13T21:21:11.874Z,19.90
2018-05-13T21:23:42.879Z,19.85
2018-05-13T21:26:13.854Z,19.82
2018-05-13T21:28:44.905Z,19.76
2018-05-13T21:31:15.887Z,19.76
2018-05-13T21:33:46.932Z,19.78
2018-05-13T21:36:17.943Z,19.80
2018-05-13T21:38:48.937Z,19.85
2018-05-13T21:41:19.951Z,19.81
2018-05-13T21:43:50.928Z,19.78
2018-05-13T21:46:21.938Z,19.86
2018-05-13T21:48:52.916Z,19.93
2018-05-13T21:51:23.928Z,19.95
2018-05-13T21:53:55.011Z,19.98
2018-05-13T21:56:25.983Z,19.99
2018-05-13T21:58:57.014Z,20.02
2018-05-13T22:01:28.022Z,20.03
2018-05-13T22:03:59.009Z,20.09
2018-05-13T22:06:30.015Z,20.18
2018-05-13T22:09:01.001Z,20.10
2018-05-13T22:11:32.006Z,20.11
2018-05-13T22:14:02.982Z,20.08
2018-05-13T22:16:34.044Z,20.02
2018-05-13T22:19:05.077Z,20.02
2018-05-13T22:21:36.102Z,20.07
2018-05-13T22:24:07.102Z,20.04
2018-05-13T22:26:38.203Z,19.89
2018-05-13T22:29:09.191Z,19.88
2018-05-13T22:31:40.184Z,19.90
2018-05-13T22:34:11.145Z,19.93
2018-05-13T22:36:42.127Z,19.98
2018-05-13T22:39:13.111Z,20.05
2018-05-13T22:41:44.106Z,20.16
2018-05-13T22:44:15.115Z,20.24
2018-05-13T22:46:46.139Z,20.24
2018-05-13T22:49:17.110Z,20.23
2018-05-13T22:51:48.106Z,20.20
2018-05-13T22:54:19.122Z,20.16
2018-05-13T22:56:50.138Z,20.13
2018-05-13T22:59:21.122Z,20.12
2018-05-13T23:01:52.148Z,20.08
2018-05-13T23:04:23.201Z,19.99
2018-05-13T23:06:54.227Z,19.92
2018-05-13T23:09:25.206Z,19.81
2018-05-13T23:11:56.233Z,19.77
2018-05-13T23:14:27.221Z,19.73
2018-05-13T23:16:58.240Z,19.72
2018-05-13T23:19:29.249Z,19.69
2018-05-13T23:22:00.365Z,19.67
2018-05-13T23:24:31.353Z,19.62
2018-05-13T23:27:02.379Z,19.58
2018-05-13T23:29:33.352Z,19.58
2018-05-13T23:32:04.386Z,19.56
2018-05-13T23:34:35.402Z,19.55
2018-05-13T23:37:06.372Z,19.56
2018-05-13T23:39:37.378Z,19.58
2018-05-13T23:42:08.342Z,19.60
2018-05-13T23:44:39.342Z,19.60
2018-05-13T23:47:10.356Z,19.62
2018-05-13T23:49:41.337Z,19.61
2018-05-13T23:52:12.347Z,19.61
2018-05-13T23:54:43.352Z,19.57
2018-05-13T23:57:14.346Z,19.52
2018-05-13T23:59:45.315Z,19.50
